Liberty Island — HPUY — position and weather

sailwx.info

Track history (hours):
 
Tides and Currents Weather Stations Pressure Air Temp Water Temp Dewpoint Dewpoint Depression Visibility Wind Speed Wind Dir Waves Ship Positions

Liberty Island

Last reported at 2015-May-16 17:16 UTC. Time now 2015-May-25 01:27 UTC.
Position N 32°18' W 009°19'.
Warning: this ship's position is 8 days out of date.

Length 178 m; draft 6.8 m.

Type: Cargo ship. MMSI: 355886000.

Date/timePositionNaut miles runAvg speedWind from/ knotsBaromVisibWave heightAir tempDewpointWater temp
2015-May-16 17:16N 32°18' W 009°19'1 1.3
2015-May-16 16:25N 32°18' W 009°18'2 2.1
2015-May-16 15:26N 32°18' W 009°20'10 0.5
2015-May-15 19:30N 32°15' W 009°32'0 0.0
2015-May-15 17:06N 32°15' W 009°31'0 0.0
2015-May-15 15:24N 32°15' W 009°31'0 0.0
2015-May-15 14:24N 32°15' W 009°31'0 0.0
2015-May-15 13:33N 32°15' W 009°31'0 0.0
2015-May-15 12:24N 32°15' W 009°31'0 0.0
2015-May-15 10:30N 32°15' W 009°32'0 0.0
2015-May-15 09:30N 32°15' W 009°31'0 0.0
2015-May-15 08:30N 32°15' W 009°31'0 0.0
2015-May-15 07:18N 32°15' W 009°31'0 0.0
2015-May-15 06:24N 32°15' W 009°31'0 0.0
2015-May-15 05:30N 32°15' W 009°31'0 0.0
2015-May-15 03:27N 32°15' W 009°31'0 0.0
2015-May-14 22:24N 32°15' W 009°31'0 0.0
2015-May-14 15:18N 32°15' W 009°31'0 0.0
2015-May-14 14:33N 32°15' W 009°31'0 0.0
2015-May-14 06:24N 32°15' W 009°31'0 0.0
2015-May-14 05:33N 32°15' W 009°31'0 0.0
2015-May-13 19:30N 32°15' W 009°31'0 0.0
2015-May-13 18:21N 32°15' W 009°31'0 0.0
2015-May-13 13:21N 32°15' W 009°31'0 0.0
2015-May-12 22:18N 32°15' W 009°31'0 0.1
2015-May-12 21:06N 32°15' W 009°31'0 0.0
2015-May-12 20:33N 32°15' W 009°31'0 0.0
2015-May-12 19:27N 32°15' W 009°31'0 0.0
2015-May-12 18:33N 32°15' W 009°31'0 0.0
2015-May-12 17:30N 32°15' W 009°31'0 0.0
2015-May-12 16:30N 32°15' W 009°31'3 0.5
2015-May-12 11:32N 32°16' W 009°28'  
2015-May-07 17:18N 32°16' W 009°20'0 0.0
2015-May-07 16:18N 32°16' W 009°20'0 0.0
2015-May-07 15:24N 32°16' W 009°20'0 0.0
2015-May-07 14:21N 32°16' W 009°20'0 0.0
2015-May-07 13:33N 32°16' W 009°20'0 0.0
2015-May-07 12:33N 32°16' W 009°20'0 0.0
2015-May-07 04:03N 32°16' W 009°20'0 0.0
2015-May-07 03:03N 32°16' W 009°20'0 0.0
2015-May-07 02:33N 32°16' W 009°20'0 0.0
2015-May-07 01:21N 32°16' W 009°20'1 1.5
2015-May-07 00:34N 32°17' W 009°21'1311.4
2015-May-06 23:27N 32°30' W 009°21'  
Track history (hours):
 
Tides and Currents Weather Stations Pressure Air Temp Water Temp Dewpoint Dewpoint Depression Visibility Wind Speed Wind Dir Waves Ship Positions

Liberty Island

Last reported at 2015-May-16 17:16 UTC. Time now 2015-May-25 01:27 UTC.
Position N 32°18' W 009°19'.
Warning: this ship's position is 8 days out of date.

Length 178 m; draft 6.8 m.

Type: Cargo ship. MMSI: 355886000.

Date/timePositionNaut miles runAvg speedWind from/ knotsBaromVisibWave heightAir tempDewpointWater temp
2015-May-16 17:16N 32°18' W 009°19'1 1.3
2015-May-16 16:25N 32°18' W 009°18'2 2.1
2015-May-16 15:26N 32°18' W 009°20'10 0.5
2015-May-15 19:30N 32°15' W 009°32'0 0.0
2015-May-15 17:06N 32°15' W 009°31'0 0.0
2015-May-15 15:24N 32°15' W 009°31'0 0.0
2015-May-15 14:24N 32°15' W 009°31'0 0.0
2015-May-15 13:33N 32°15' W 009°31'0 0.0
2015-May-15 12:24N 32°15' W 009°31'0 0.0
2015-May-15 10:30N 32°15' W 009°32'0 0.0
2015-May-15 09:30N 32°15' W 009°31'0 0.0
2015-May-15 08:30N 32°15' W 009°31'0 0.0
2015-May-15 07:18N 32°15' W 009°31'0 0.0
2015-May-15 06:24N 32°15' W 009°31'0 0.0
2015-May-15 05:30N 32°15' W 009°31'0 0.0
2015-May-15 03:27N 32°15' W 009°31'0 0.0
2015-May-14 22:24N 32°15' W 009°31'0 0.0
2015-May-14 15:18N 32°15' W 009°31'0 0.0
2015-May-14 14:33N 32°15' W 009°31'0 0.0
2015-May-14 06:24N 32°15' W 009°31'0 0.0
2015-May-14 05:33N 32°15' W 009°31'0 0.0
2015-May-13 19:30N 32°15' W 009°31'0 0.0
2015-May-13 18:21N 32°15' W 009°31'0 0.0
2015-May-13 13:21N 32°15' W 009°31'0 0.0
2015-May-12 22:18N 32°15' W 009°31'0 0.1
2015-May-12 21:06N 32°15' W 009°31'0 0.0
2015-May-12 20:33N 32°15' W 009°31'0 0.0
2015-May-12 19:27N 32°15' W 009°31'0 0.0
2015-May-12 18:33N 32°15' W 009°31'0 0.0
2015-May-12 17:30N 32°15' W 009°31'0 0.0
2015-May-12 16:30N 32°15' W 009°31'3 0.5
2015-May-12 11:32N 32°16' W 009°28'  
2015-May-07 17:18N 32°16' W 009°20'0 0.0
2015-May-07 16:18N 32°16' W 009°20'0 0.0
2015-May-07 15:24N 32°16' W 009°20'0 0.0
2015-May-07 14:21N 32°16' W 009°20'0 0.0
2015-May-07 13:33N 32°16' W 009°20'0 0.0
2015-May-07 12:33N 32°16' W 009°20'0 0.0
2015-May-07 04:03N 32°16' W 009°20'0 0.0
2015-May-07 03:03N 32°16' W 009°20'0 0.0
2015-May-07 02:33N 32°16' W 009°20'0 0.0
2015-May-07 01:21N 32°16' W 009°20'1 1.5
2015-May-07 00:34N 32°17' W 009°21'1311.4
2015-May-06 23:27N 32°30' W 009°21'  

Dump ship's entire track history